Time;durP1;ratioP1;P1;durP2;ratioP2;P2;SDS_P1;SDS_P2;PMS_P1;PMS_P2;Temp;Humidity;BMP_temperature;BMP_pressure;BME280_temperature;BME280_humidity;BME280_pressure;Samples;Min_cycle;Max_cycle;Signal;HPM_P1;HPM_P2
2023/12/24 00:00:56;;;;;;;0.45;0.20;;;;;;;10.93;69.62;99822.41;10248412;28;20059;-84
2023/12/24 00:05:58;;;;;;;0.22;0.20;;;;;;;10.87;69.91;99794.44;10230507;28;20057;-85
2023/12/24 00:11:00;;;;;;;1.25;0.10;;;;;;;10.84;70.16;99792.16;10261576;28;20047;-85
2023/12/24 00:16:01;;;;;;;0.40;0.10;;;;;;;10.84;70.21;99796.66;10256727;28;20134;-86
2023/12/24 00:21:03;;;;;;;0.85;0.10;;;;;;;10.82;69.99;99785.28;10237185;28;20067;-86
2023/12/24 00:26:05;;;;;;;0.95;0.10;;;;;;;10.89;69.86;99803.16;10237169;28;20043;-84
2023/12/24 00:31:07;;;;;;;0.88;0.10;;;;;;;10.95;69.96;99795.34;10246837;28;20058;-84
2023/12/24 00:36:12;;;;;;;0.13;0.05;;;;;;;11.08;69.56;99801.69;10253966;28;20705;-84
2023/12/24 00:41:13;;;;;;;0.20;0.00;;;;;;;11.15;69.55;99796.34;10257450;28;20059;-85
2023/12/24 00:46:16;;;;;;;0.08;0.08;;;;;;;11.25;68.66;99802.22;10257396;28;20043;-85
2023/12/24 00:51:17;;;;;;;0.20;0.00;;;;;;;11.31;68.68;99814.06;10260346;28;20064;-84
2023/12/24 00:56:19;;;;;;;1.58;0.10;;;;;;;11.35;68.21;99811.84;10218364;28;20047;-85
2023/12/24 01:01:20;;;;;;;0.60;0.08;;;;;;;11.46;68.10;99805.94;10220908;28;20118;-84
2023/12/24 01:06:22;;;;;;;0.82;0.00;;;;;;;11.57;67.80;99802.72;10223398;28;20218;-85
2023/12/24 01:11:24;;;;;;;0.43;0.00;;;;;;;11.61;67.13;99812.06;10208759;28;20408;-85
2023/12/24 01:16:26;;;;;;;1.90;0.17;;;;;;;11.67;67.40;99805.03;10222118;28;20059;-84
2023/12/24 01:21:27;;;;;;;0.10;0.00;;;;;;;11.74;67.08;99818.56;10216981;28;20060;-84
2023/12/24 01:26:29;;;;;;;0.20;0.13;;;;;;;11.82;66.92;99827.31;10229346;28;20122;-85
2023/12/24 01:31:31;;;;;;;0.47;0.00;;;;;;;11.80;66.35;99823.16;10220858;28;20482;-85
2023/12/24 01:36:32;;;;;;;0.15;0.00;;;;;;;11.82;66.36;99835.38;10211366;29;20133;-84
2023/12/24 01:41:34;;;;;;;0.10;0.00;;;;;;;11.89;66.04;99843.56;10233997;28;20047;-85
2023/12/24 01:46:37;;;;;;;0.38;0.10;;;;;;;11.93;65.86;99834.03;10245840;28;20051;-85
2023/12/24 01:51:38;;;;;;;0.10;0.10;;;;;;;11.96;65.97;99827.44;10242358;28;20114;-84
2023/12/24 01:56:40;;;;;;;2.28;0.03;;;;;;;12.00;65.44;99826.81;10209823;28;20145;-85
2023/12/24 02:01:42;;;;;;;0.32;0.00;;;;;;;12.02;64.96;99832.00;10232578;28;20057;-85
2023/12/24 02:06:44;;;;;;;1.20;0.00;;;;;;;12.05;64.41;99820.84;10283559;28;20368;-85
2023/12/24 02:11:45;;;;;;;0.40;0.00;;;;;;;12.07;64.78;99805.31;10255342;28;20039;-85
2023/12/24 02:16:48;;;;;;;0.00;0.00;;;;;;;12.10;64.77;99813.00;10250190;29;20055;-84
2023/12/24 02:21:49;;;;;;;0.15;0.10;;;;;;;12.12;64.72;99810.94;10269689;29;20035;-85
2023/12/24 02:27:03;;;;;;;0.38;0.13;;;;;;;12.17;64.30;99826.53;10270020;28;20046;-86
2023/12/24 02:32:10;;;;;;;0.95;0.10;;;;;;;12.19;64.53;99824.44;10265393;28;20084;-84
2023/12/24 02:37:12;;;;;;;0.10;0.00;;;;;;;12.16;64.74;99814.06;10275018;28;20055;-86
2023/12/24 02:42:14;;;;;;;0.43;0.10;;;;;;;12.08;64.14;99839.31;10253231;28;20074;-86
2023/12/24 02:47:15;;;;;;;0.28;0.00;;;;;;;12.12;64.15;99816.31;10272458;28;20086;-85
2023/12/24 02:52:17;;;;;;;1.55;0.28;;;;;;;12.15;64.32;99815.94;10272531;28;20079;-85
2023/12/24 02:57:20;;;;;;;1.00;0.00;;;;;;;12.14;64.31;99806.16;10252380;29;20047;-84
2023/12/24 03:02:21;;;;;;;2.38;0.25;;;;;;;12.08;64.05;99804.28;10251091;28;20047;-85
2023/12/24 03:07:23;;;;;;;0.47;0.00;;;;;;;12.07;64.35;99794.53;10265423;28;20063;-83
2023/12/24 03:12:24;;;;;;;0.10;0.00;;;;;;;11.97;64.53;99792.22;10247094;28;20080;-83
2023/12/24 03:17:26;;;;;;;1.08;0.10;;;;;;;11.98;64.38;99779.56;10259070;28;20050;-84
2023/12/24 03:22:27;;;;;;;2.08;0.10;;;;;;;12.00;64.06;99764.88;10282716;28;20057;-86
2023/12/24 03:27:29;;;;;;;0.47;0.10;;;;;;;12.01;64.23;99752.25;10267636;28;20055;-83
2023/12/24 03:32:31;;;;;;;0.28;0.10;;;;;;;12.04;64.03;99730.28;10285614;28;20048;-84
2023/12/24 03:37:33;;;;;;;0.30;0.20;;;;;;;11.99;64.10;99697.75;10256332;29;20063;-84
2023/12/24 03:42:34;;;;;;;1.23;0.20;;;;;;;11.99;63.68;99681.59;10261079;28;20048;-83
2023/12/24 03:47:36;;;;;;;1.08;0.28;;;;;;;11.96;63.76;99692.75;10277953;28;20055;-83
2023/12/24 03:52:40;;;;;;;0.20;0.10;;;;;;;11.98;63.83;99707.66;10265665;28;20071;-83
2023/12/24 03:57:41;;;;;;;0.52;0.20;;;;;;;11.96;63.63;99708.91;10254220;28;20047;-84
2023/12/24 04:02:43;;;;;;;0.10;0.10;;;;;;;11.97;63.14;99705.19;10251554;29;20039;-84
2023/12/24 04:07:44;;;;;;;0.30;0.10;;;;;;;12.04;63.46;99695.25;10245391;29;20094;-84
2023/12/24 04:12:46;;;;;;;0.50;0.30;;;;;;;12.00;63.62;99694.81;10258118;28;20054;-87
2023/12/24 04:17:47;;;;;;;0.25;0.20;;;;;;;11.97;63.71;99695.25;10246321;28;20055;-84
2023/12/24 04:22:49;;;;;;;0.20;0.10;;;;;;;11.94;64.07;99689.44;10231844;28;20051;-85
2023/12/24 04:27:51;;;;;;;0.20;0.10;;;;;;;11.91;64.17;99696.06;10226339;28;20126;-82
2023/12/24 04:32:53;;;;;;;1.85;0.28;;;;;;;11.93;64.15;99690.44;10213087;28;20071;-82
2023/12/24 04:37:55;;;;;;;0.70;0.10;;;;;;;11.86;64.61;99677.75;10226316;28;20508;-82
2023/12/24 04:42:57;;;;;;;0.20;0.10;;;;;;;11.79;64.51;99676.06;10210686;29;20041;-82
2023/12/24 04:47:59;;;;;;;0.10;0.00;;;;;;;11.65;65.21;99684.09;10223555;28;20391;-83
2023/12/24 04:53:01;;;;;;;0.50;0.10;;;;;;;11.67;64.98;99673.09;10223385;28;20049;-83
2023/12/24 04:58:03;;;;;;;2.03;0.00;;;;;;;11.69;65.43;99657.63;10223435;28;20046;-85
2023/12/24 05:03:04;;;;;;;0.32;0.10;;;;;;;11.70;65.54;99652.00;10222880;28;20039;-84
2023/12/24 05:08:06;;;;;;;0.55;0.20;;;;;;;11.71;65.41;99660.94;10211135;29;20139;-84
2023/12/24 05:13:11;;;;;;;0.20;0.20;;;;;;;11.67;65.67;99663.19;10229324;28;20054;-84
2023/12/24 05:18:13;;;;;;;1.38;0.15;;;;;;;11.33;66.86;99666.72;10219046;28;20051;-84
2023/12/24 05:23:16;;;;;;;0.75;0.10;;;;;;;10.97;68.16;99661.53;10228134;28;20042;-84
2023/12/24 05:28:18;;;;;;;1.48;0.10;;;;;;;10.78;69.14;99663.88;10224152;29;20509;-84
2023/12/24 05:33:19;;;;;;;0.10;0.10;;;;;;;10.61;69.75;99665.16;10221820;28;20047;-85
2023/12/24 05:38:21;;;;;;;0.28;0.00;;;;;;;10.49;70.34;99672.91;10209254;28;20044;-84
2023/12/24 05:43:22;;;;;;;1.92;0.10;;;;;;;10.37;71.29;99677.13;10220148;28;20075;-84
2023/12/24 05:48:24;;;;;;;0.22;0.10;;;;;;;10.27;72.16;99691.69;10215135;28;20102;-83
2023/12/24 05:53:25;;;;;;;0.63;0.52;;;;;;;10.26;72.44;99681.13;10237236;28;20071;-84
2023/12/24 05:58:27;;;;;;;0.00;0.00;;;;;;;10.15;72.95;99679.78;10207415;28;20213;-84
2023/12/24 06:03:29;;;;;;;0.50;0.10;;;;;;;10.05;73.46;99696.19;10223783;28;20453;-84
2023/12/24 06:08:30;;;;;;;0.10;0.10;;;;;;;9.92;74.23;99688.78;10205773;29;20048;-83
2023/12/24 06:13:32;;;;;;;0.70;0.10;;;;;;;9.90;74.65;99687.31;10243121;28;20078;-84
2023/12/24 06:18:33;;;;;;;1.02;0.10;;;;;;;9.89;74.90;99686.50;10232750;28;20059;-83
2023/12/24 06:23:35;;;;;;;0.22;0.10;;;;;;;9.81;75.70;99683.06;10234673;29;20451;-83
2023/12/24 06:28:37;;;;;;;0.20;0.10;;;;;;;9.85;75.32;99673.63;10250154;28;20058;-83
2023/12/24 06:33:38;;;;;;;0.40;0.20;;;;;;;9.81;76.16;99689.25;10238388;28;20078;-82
2023/12/24 06:38:40;;;;;;;0.47;0.20;;;;;;;9.83;75.96;99691.78;10217927;29;20642;-83
2023/12/24 06:43:42;;;;;;;1.75;0.20;;;;;;;9.82;76.35;99685.56;10225363;29;20558;-83
2023/12/24 06:48:43;;;;;;;0.75;0.22;;;;;;;9.82;77.00;99682.06;10228935;28;20066;-82
2023/12/24 06:53:45;;;;;;;0.75;0.30;;;;;;;9.81;77.05;99683.06;10231325;29;20129;-82
2023/12/24 06:58:47;;;;;;;0.60;0.40;;;;;;;9.82;77.39;99684.75;10218312;28;20046;-81
2023/12/24 07:03:48;;;;;;;0.70;0.50;;;;;;;9.78;77.74;99662.81;10242671;29;20048;-81
2023/12/24 07:08:51;;;;;;;0.77;0.35;;;;;;;9.78;78.35;99676.25;10236372;28;20054;-82
2023/12/24 07:13:53;;;;;;;1.35;0.50;;;;;;;9.79;78.66;99677.06;10228987;28;20044;-82
2023/12/24 07:18:54;;;;;;;1.85;0.50;;;;;;;9.80;78.42;99676.88;10221221;29;20075;-82
2023/12/24 07:23:56;;;;;;;0.68;0.60;;;;;;;9.82;78.62;99682.06;10247676;28;20048;-83
2023/12/24 07:28:57;;;;;;;1.80;0.60;;;;;;;9.83;78.60;99678.34;10236752;28;20071;-82
2023/12/24 07:33:59;;;;;;;3.17;1.00;;;;;;;9.79;79.30;99674.38;10247463;28;20047;-84
2023/12/24 07:39:01;;;;;;;1.20;0.60;;;;;;;9.78;79.38;99676.25;10262445;29;20052;-82
2023/12/24 07:44:02;;;;;;;2.33;0.68;;;;;;;9.77;79.92;99685.28;10243220;28;20094;-83
2023/12/24 07:49:04;;;;;;;0.77;0.50;;;;;;;9.79;80.25;99674.38;10264218;28;20169;-84
2023/12/24 07:54:06;;;;;;;0.73;0.57;;;;;;;9.80;80.18;99671.50;10241046;28;20059;-85
2023/12/24 07:59:07;;;;;;;2.28;0.70;;;;;;;9.79;80.47;99672.50;10225584;28;20102;-85
2023/12/24 08:04:09;;;;;;;1.00;0.70;;;;;;;9.80;80.90;99665.31;10255914;28;20131;-87
2023/12/24 08:09:11;;;;;;;1.33;0.70;;;;;;;9.86;80.55;99661.88;10219386;28;20135;-86
2023/12/24 08:14:12;;;;;;;1.15;0.50;;;;;;;9.84;81.25;99664.75;10261322;28;20023;-85
2023/12/24 08:19:14;;;;;;;0.88;0.38;;;;;;;9.85;81.40;99662.88;10277348;28;20035;-86
2023/12/24 08:24:16;;;;;;;1.00;0.55;;;;;;;9.88;81.23;99670.56;10282560;28;20044;-86
2023/12/24 08:29:17;;;;;;;1.42;0.70;;;;;;;9.85;81.48;99657.50;10293684;23;20070;-64
2023/12/24 08:34:19;;;;;;;2.90;0.77;;;;;;;9.88;81.67;99667.88;10250195;28;20054;-63
2023/12/24 08:39:20;;;;;;;0.85;0.60;;;;;;;9.90;81.57;99664.00;10241684;28;20410;-63
2023/12/24 08:44:22;;;;;;;0.82;0.45;;;;;;;9.95;81.48;99673.31;10245203;28;20050;-62
2023/12/24 08:49:23;;;;;;;0.90;0.47;;;;;;;9.99;81.57;99669.25;10245888;28;20062;-60
2023/12/24 08:54:25;;;;;;;0.85;0.40;;;;;;;10.02;81.82;99663.50;10240346;28;20052;-63
2023/12/24 08:59:26;;;;;;;0.82;0.40;;;;;;;10.04;81.79;99670.34;10235038;28;20067;-62
2023/12/24 09:04:28;;;;;;;0.52;0.25;;;;;;;10.04;81.93;99664.16;10238750;28;20047;-63
2023/12/24 09:09:29;;;;;;;0.60;0.38;;;;;;;10.04;81.85;99662.28;10249123;28;20047;-64
2023/12/24 09:14:31;;;;;;;1.10;0.52;;;;;;;10.06;82.04;99675.53;10239020;28;20047;-64
2023/12/24 09:19:32;;;;;;;1.02;0.30;;;;;;;10.10;81.93;99674.13;10239403;28;20067;-62
2023/12/24 09:24:34;;;;;;;0.80;0.20;;;;;;;10.07;82.03;99678.03;10239095;28;20044;-67
2023/12/24 09:29:35;;;;;;;1.40;0.20;;;;;;;10.10;82.72;99676.81;10248359;28;20051;-70
2023/12/24 09:34:36;;;;;;;0.45;0.20;;;;;;;10.12;82.20;99674.78;10235883;28;20043;-68
2023/12/24 09:39:38;;;;;;;0.40;0.30;;;;;;;10.15;82.32;99679.78;10246126;28;20109;-67
2023/12/24 09:44:40;;;;;;;0.10;0.10;;;;;;;10.19;82.16;99683.75;10248468;28;20052;-66
2023/12/24 09:49:42;;;;;;;0.90;0.10;;;;;;;10.28;82.46;99681.75;10269224;28;20047;-68
2023/12/24 09:54:44;;;;;;;1.95;0.10;;;;;;;10.36;81.91;99684.34;10252120;28;20370;-67
2023/12/24 09:59:46;;;;;;;0.63;0.10;;;;;;;10.37;82.39;99671.75;10248517;28;20071;-67
2023/12/24 10:04:48;;;;;;;0.17;0.10;;;;;;;10.45;81.98;99672.47;10246900;28;20388;-65
2023/12/24 10:09:50;;;;;;;0.20;0.10;;;;;;;10.42;81.90;99670.16;10252336;28;20043;-68
2023/12/24 10:14:57;;;;;;;1.13;0.10;;;;;;;10.44;82.07;99657.34;10256771;28;20136;-67
2023/12/24 10:20:02;;;;;;;0.43;0.10;;;;;;;10.43;82.05;99665.63;10243060;28;20094;-68
2023/12/24 10:25:06;;;;;;;0.30;0.20;;;;;;;10.37;81.98;99671.75;10245303;28;20447;-63
2023/12/24 10:30:13;;;;;;;0.22;0.22;;;;;;;10.44;82.29;99665.41;10241935;28;20055;-66
2023/12/24 10:35:26;;;;;;;0.15;0.10;;;;;;;10.42;82.35;99659.41;10247646;28;20160;-63
2023/12/24 10:40:27;;;;;;;0.17;0.10;;;;;;;10.50;81.83;99645.00;10245579;28;20498;-63
2023/12/24 10:45:29;;;;;;;0.30;0.10;;;;;;;10.51;82.04;99635.94;10252873;28;20091;-63
2023/12/24 10:50:30;;;;;;;0.10;0.10;;;;;;;10.66;81.98;99619.72;10248311;28;20073;-62
2023/12/24 10:55:34;;;;;;;1.77;0.10;;;;;;;10.79;81.32;99614.44;10238081;28;20522;-64
2023/12/24 11:00:35;;;;;;;1.00;0.73;;;;;;;10.94;81.45;99600.06;10243771;28;20049;-64
2023/12/24 11:05:39;;;;;;;5.88;2.63;;;;;;;11.08;81.22;99612.56;10245186;28;20105;-64
2023/12/24 11:10:42;;;;;;;0.30;0.10;;;;;;;11.15;80.61;99616.13;10246917;28;20409;-66
2023/12/24 11:15:45;;;;;;;2.78;1.58;;;;;;;11.28;80.85;99610.00;10252685;28;20047;-66
2023/12/24 11:20:46;;;;;;;0.63;0.22;;;;;;;11.34;80.17;99587.69;10241162;28;20047;-68
2023/12/24 11:25:53;;;;;;;0.28;0.10;;;;;;;11.24;80.57;99581.84;10242712;28;20118;-67
2023/12/24 11:30:57;;;;;;;0.10;0.00;;;;;;;11.24;80.06;99584.53;10232331;28;20507;-67
2023/12/24 11:36:00;;;;;;;0.40;0.20;;;;;;;11.31;80.13;99586.22;10247447;28;20174;-69
2023/12/24 11:41:11;;;;;;;0.70;0.10;;;;;;;11.37;79.62;99586.44;10254280;28;20128;-70
2023/12/24 11:46:12;;;;;;;0.17;0.00;;;;;;;11.40;79.71;99597.63;10248415;28;20121;-71
2023/12/24 11:51:14;;;;;;;0.20;0.00;;;;;;;11.45;79.00;99573.66;10240556;28;20043;-71
2023/12/24 11:56:17;;;;;;;0.47;0.25;;;;;;;11.57;78.67;99552.38;10234445;28;20042;-65
2023/12/24 12:01:24;;;;;;;0.88;0.10;;;;;;;11.60;78.38;99543.06;10254221;28;20122;-67
2023/12/24 12:06:29;;;;;;;0.10;0.10;;;;;;;11.75;77.99;99530.25;10245107;28;20122;-65
2023/12/24 12:11:31;;;;;;;0.00;0.00;;;;;;;11.88;77.36;99535.66;10242408;28;20051;-65
2023/12/24 12:16:34;;;;;;;0.20;0.00;;;;;;;11.97;77.19;99506.72;10243645;28;20097;-65
2023/12/24 12:21:36;;;;;;;0.00;0.00;;;;;;;12.02;77.24;99495.31;10232505;28;20043;-65
2023/12/24 12:26:37;;;;;;;0.00;0.00;;;;;;;12.10;76.56;99506.72;10233351;28;20050;-69
2023/12/24 12:31:39;;;;;;;0.10;0.00;;;;;;;12.15;76.22;99507.97;10245911;28;20355;-71
2023/12/24 12:36:40;;;;;;;0.30;0.03;;;;;;;12.18;75.78;99510.22;10238223;28;20043;-71
2023/12/24 12:41:42;;;;;;;0.00;0.00;;;;;;;12.25;75.60;99509.19;10232470;28;20054;-72
2023/12/24 12:46:43;;;;;;;0.10;0.10;;;;;;;12.27;75.19;99523.28;10243722;28;20094;-68
2023/12/24 12:51:45;;;;;;;0.00;0.00;;;;;;;12.41;74.71;99520.59;10241821;28;20039;-72
2023/12/24 12:56:51;;;;;;;0.00;0.00;;;;;;;12.40;74.65;99517.06;10243436;28;20051;-71
2023/12/24 13:01:53;;;;;;;0.20;0.00;;;;;;;12.36;74.44;99537.41;10245368;28;20439;-71
2023/12/24 13:07:01;;;;;;;0.10;0.00;;;;;;;12.36;73.96;99539.25;10237731;28;20043;-71
2023/12/24 13:12:07;;;;;;;0.10;0.00;;;;;;;12.41;73.80;99521.41;10244917;28;20051;-70
2023/12/24 13:17:10;;;;;;;0.10;0.00;;;;;;;12.41;73.51;99524.09;10245769;28;20047;-70
2023/12/24 13:22:12;;;;;;;0.22;0.05;;;;;;;12.38;73.87;99511.06;10246218;28;20166;-70
2023/12/24 13:27:13;;;;;;;0.10;0.00;;;;;;;12.43;73.54;99516.66;10248463;28;20691;-69
2023/12/24 13:32:14;;;;;;;0.08;0.00;;;;;;;12.43;73.42;99511.25;10248390;28;20047;-69
2023/12/24 13:37:16;;;;;;;0.10;0.10;;;;;;;12.44;73.14;99528.25;10245896;28;20051;-69
2023/12/24 13:42:17;;;;;;;0.10;0.10;;;;;;;12.35;73.63;99541.13;10250660;28;20059;-68
2023/12/24 13:47:19;;;;;;;0.10;0.00;;;;;;;12.30;73.73;99530.13;10254078;28;20047;-69
2023/12/24 13:52:20;;;;;;;0.20;0.00;;;;;;;12.04;74.38;99537.16;10249975;28;20512;-69
2023/12/24 13:57:21;;;;;;;0.15;0.08;;;;;;;11.73;75.39;99555.72;10249758;28;20054;-70
2023/12/24 14:02:23;;;;;;;0.22;0.00;;;;;;;11.56;75.83;99563.34;10250241;28;20065;-69
2023/12/24 14:07:24;;;;;;;0.05;0.00;;;;;;;11.34;76.64;99546.50;10255070;28;20043;-67
2023/12/24 14:12:33;;;;;;;0.22;0.03;;;;;;;11.12;77.55;99551.97;10251860;28;20379;-66
2023/12/24 14:17:35;;;;;;;0.10;0.00;;;;;;;11.01;78.17;99558.72;10255526;28;20050;-66
2023/12/24 14:22:37;;;;;;;0.10;0.00;;;;;;;11.00;78.16;99554.41;10253073;28;20142;-66
2023/12/24 14:27:38;;;;;;;0.60;0.10;;;;;;;11.03;78.10;99547.78;10257971;28;20058;-66
2023/12/24 14:32:39;;;;;;;0.30;0.10;;;;;;;10.97;78.36;99559.34;10248368;28;20459;-66
2023/12/24 14:37:41;;;;;;;0.10;0.10;;;;;;;10.94;78.51;99546.28;10240100;28;20067;-68
2023/12/24 14:42:43;;;;;;;0.40;0.17;;;;;;;10.90;79.12;99535.13;10241109;28;20058;-69
2023/12/24 14:47:44;;;;;;;0.75;0.20;;;;;;;10.84;79.23;99530.50;10251946;28;20047;-66
2023/12/24 14:52:46;;;;;;;3.53;0.30;;;;;;;10.86;79.25;99537.38;10249044;28;20141;-65
2023/12/24 14:57:47;;;;;;;0.75;0.20;;;;;;;10.84;79.60;99528.66;10245334;28;20052;-62
2023/12/24 15:02:48;;;;;;;0.63;0.20;;;;;;;10.83;79.99;99537.75;10248987;28;20046;-66
2023/12/24 15:07:50;;;;;;;0.17;0.17;;;;;;;10.87;79.82;99535.50;10251101;28;20054;-64
2023/12/24 15:12:52;;;;;;;0.20;0.10;;;;;;;10.88;80.21;99532.63;10236023;28;20040;-68
2023/12/24 15:17:53;;;;;;;0.45;0.10;;;;;;;10.87;79.84;99539.00;10240528;28;20046;-72
2023/12/24 15:22:55;;;;;;;1.73;0.10;;;;;;;10.90;80.17;99532.41;10249634;28;20125;-67
2023/12/24 15:27:56;;;;;;;0.50;0.10;;;;;;;10.98;80.34;99542.16;10260477;28;20043;-69
2023/12/24 15:32:59;;;;;;;1.20;0.20;;;;;;;11.01;79.70;99555.22;10241077;28;20047;-69
2023/12/24 15:38:00;;;;;;;0.10;0.10;;;;;;;11.03;80.29;99545.91;10248637;28;20039;-66
2023/12/24 15:43:02;;;;;;;0.30;0.10;;;;;;;11.09;79.86;99537.03;10236487;28;20117;-72
2023/12/24 15:48:04;;;;;;;0.30;0.20;;;;;;;11.16;79.89;99538.94;10246067;28;20047;-69
2023/12/24 15:53:05;;;;;;;0.40;0.10;;;;;;;11.19;79.61;99533.16;10245071;28;20043;-69
2023/12/24 15:58:07;;;;;;;0.10;0.08;;;;;;;11.25;79.50;99529.66;10245531;28;20049;-68
2023/12/24 16:03:08;;;;;;;0.35;0.17;;;;;;;11.29;79.86;99534.47;10245604;28;20130;-69
2023/12/24 16:08:10;;;;;;;0.20;0.10;;;;;;;11.29;79.95;99541.69;10249399;28;20044;-69
2023/12/24 16:13:12;;;;;;;0.40;0.10;;;;;;;11.41;79.26;99547.31;10235515;28;20071;-69
2023/12/24 16:18:13;;;;;;;0.20;0.10;;;;;;;11.49;78.90;99542.63;10235955;28;20518;-69
2023/12/24 16:23:15;;;;;;;0.20;0.10;;;;;;;11.55;78.68;99530.19;10238873;28;20043;-69
2023/12/24 16:28:16;;;;;;;0.28;0.15;;;;;;;11.65;78.80;99545.94;10253752;28;20090;-69
2023/12/24 16:33:18;;;;;;;0.68;0.35;;;;;;;11.71;78.54;99545.16;10253070;28;20062;-70
2023/12/24 16:38:19;;;;;;;0.63;0.10;;;;;;;11.75;78.60;99535.66;10286955;23;20070;-84
2023/12/24 16:43:21;;;;;;;0.40;0.10;;;;;;;11.81;78.33;99528.59;10279584;28;20038;-85
2023/12/24 16:48:22;;;;;;;0.52;0.10;;;;;;;11.79;78.03;99538.75;10282205;28;20114;-85
2023/12/24 16:53:24;;;;;;;0.30;0.10;;;;;;;11.83;77.97;99537.31;10284130;28;20122;-88
2023/12/24 16:58:26;;;;;;;1.77;0.20;;;;;;;11.86;78.00;99532.34;10282276;28;20494;-84
2023/12/24 17:03:27;;;;;;;0.30;0.20;;;;;;;11.93;77.56;99534.22;10276279;28;20053;-83
2023/12/24 17:08:29;;;;;;;1.55;0.20;;;;;;;11.99;77.35;99526.19;10277186;28;20117;-82
2023/12/24 17:13:31;;;;;;;1.10;0.25;;;;;;;12.03;77.19;99534.69;10278580;28;20046;-85
2023/12/24 17:18:33;;;;;;;0.40;0.20;;;;;;;11.99;77.27;99536.97;10278541;28;20062;-84
2023/12/24 17:23:34;;;;;;;0.52;0.30;;;;;;;12.03;77.22;99548.97;10277365;28;20074;-84
2023/12/24 17:28:36;;;;;;;0.85;0.20;;;;;;;12.09;76.82;99532.00;10272548;28;20053;-84
2023/12/24 17:33:37;;;;;;;1.48;0.22;;;;;;;12.08;76.51;99534.88;10278080;28;20409;-85
2023/12/24 17:38:39;;;;;;;0.35;0.20;;;;;;;12.09;76.73;99537.38;10277527;28;20050;-85
2023/12/24 17:43:41;;;;;;;1.65;0.38;;;;;;;12.06;76.71;99535.06;10277745;28;20550;-85
2023/12/24 17:48:42;;;;;;;0.40;0.17;;;;;;;12.11;76.23;99550.66;10276892;28;20050;-85
2023/12/24 17:53:44;;;;;;;0.65;0.30;;;;;;;12.14;75.98;99552.91;10276472;28;20059;-85
2023/12/24 17:58:46;;;;;;;1.20;0.40;;;;;;;12.12;75.95;99567.63;10278390;28;20973;-84
2023/12/24 18:03:47;;;;;;;0.30;0.20;;;;;;;12.12;75.97;99567.63;10260309;28;20051;-85
2023/12/24 18:08:49;;;;;;;0.65;0.20;;;;;;;12.12;75.96;99551.47;10281131;28;20153;-84
2023/12/24 18:13:51;;;;;;;1.15;0.20;;;;;;;12.13;75.59;99570.13;10269650;28;20047;-85
2023/12/24 18:18:52;;;;;;;0.57;0.20;;;;;;;12.16;75.92;99576.97;10286637;28;20137;-85
2023/12/24 18:23:54;;;;;;;3.92;0.43;;;;;;;12.18;75.63;99585.66;10270334;28;20055;-82
2023/12/24 18:28:56;;;;;;;0.57;0.38;;;;;;;12.20;75.75;99586.28;10287993;28;20065;-85
2023/12/24 18:33:57;;;;;;;2.42;0.50;;;;;;;12.18;75.51;99577.59;10287728;28;20046;-84
2023/12/24 18:38:59;;;;;;;2.63;0.35;;;;;;;12.17;75.39;99557.91;10302391;28;20482;-84
2023/12/24 18:44:01;;;;;;;2.65;0.30;;;;;;;12.19;75.60;99560.41;10299163;28;20046;-86
2023/12/24 18:49:03;;;;;;;0.82;0.52;;;;;;;12.18;75.09;99566.81;10315906;28;20047;-87
2023/12/24 18:54:05;;;;;;;3.03;0.70;;;;;;;12.15;75.21;99570.75;10280074;28;20062;-87
2023/12/24 18:59:06;;;;;;;2.45;0.50;;;;;;;12.22;74.93;99560.81;10293134;28;20078;-87
2023/12/24 19:04:08;;;;;;;4.13;0.52;;;;;;;12.23;75.28;99572.41;10293501;28;20086;-85
2023/12/24 19:09:10;;;;;;;0.57;0.40;;;;;;;12.24;74.88;99571.38;10287657;28;20043;-85
2023/12/24 19:14:12;;;;;;;5.30;1.38;;;;;;;12.28;75.11;99559.13;10288073;28;20112;-85
2023/12/24 19:19:14;;;;;;;2.03;0.43;;;;;;;12.29;74.78;99580.50;10280021;28;20109;-85
2023/12/24 19:24:15;;;;;;;3.55;0.43;;;;;;;12.36;74.60;99576.97;10286366;28;20081;-85
2023/12/24 19:29:17;;;;;;;2.55;0.55;;;;;;;12.38;74.81;99578.44;10287266;28;20047;-85
2023/12/24 19:34:20;;;;;;;0.77;0.25;;;;;;;12.42;74.76;99574.31;10267539;28;20063;-85
2023/12/24 19:39:21;;;;;;;5.07;0.50;;;;;;;12.46;74.75;99569.28;10284365;28;20063;-86
2023/12/24 19:44:23;;;;;;;2.85;0.40;;;;;;;12.47;74.76;99579.88;10283368;28;20134;-85
2023/12/24 19:49:24;;;;;;;3.05;0.50;;;;;;;12.52;74.46;99622.41;10258682;28;20498;-84
2023/12/24 19:54:26;;;;;;;2.03;0.30;;;;;;;12.58;74.26;99618.03;10302981;28;20058;-87
2023/12/24 19:59:29;;;;;;;1.50;0.50;;;;;;;12.58;74.35;99639.59;10273006;28;20043;-88
2023/12/24 20:04:32;;;;;;;3.53;0.40;;;;;;;12.57;74.18;99646.03;10286398;28;20054;-87
2023/12/24 20:09:34;;;;;;;3.60;0.50;;;;;;;12.51;74.33;99642.31;10273400;28;20332;-86
2023/12/24 20:14:35;;;;;;;0.85;0.30;;;;;;;12.49;74.00;99668.63;10288067;28;20071;-87
2023/12/24 20:19:37;;;;;;;2.05;0.30;;;;;;;12.52;74.11;99649.38;10288477;28;20061;-87
2023/12/24 20:24:39;;;;;;;1.50;0.30;;;;;;;12.53;73.86;99618.66;10287867;28;20047;-87
2023/12/24 20:29:40;;;;;;;3.22;0.40;;;;;;;12.59;73.73;99612.44;10271552;28;20137;-86
2023/12/24 20:34:42;;;;;;;1.58;0.50;;;;;;;12.61;73.03;99626.53;10269928;28;20054;-87
2023/12/24 20:39:44;;;;;;;2.38;0.30;;;;;;;12.46;73.45;99625.91;10289094;28;20101;-86
2023/12/24 20:44:46;;;;;;;2.05;0.25;;;;;;;12.35;73.73;99621.97;10292446;28;20113;-86
2023/12/24 20:49:47;;;;;;;2.17;0.22;;;;;;;12.38;73.75;99618.03;10275357;28;20480;-86
2023/12/24 20:54:50;;;;;;;3.63;0.35;;;;;;;12.45;72.84;99619.69;10319345;28;20035;-86
2023/12/24 20:59:52;;;;;;;1.10;0.38;;;;;;;12.53;72.54;99618.66;10331668;28;20054;-83
2023/12/24 21:04:54;;;;;;;3.83;0.50;;;;;;;12.57;72.52;99637.97;10273096;28;20529;-84
2023/12/24 21:09:56;;;;;;;2.50;0.50;;;;;;;12.61;72.26;99631.13;10289637;28;20085;-83
2023/12/24 21:14:58;;;;;;;2.13;0.40;;;;;;;12.63;72.12;99645.22;10287998;28;20047;-83
2023/12/24 21:20:00;;;;;;;3.13;0.30;;;;;;;12.70;71.73;99621.78;10282654;28;20043;-85
2023/12/24 21:25:01;;;;;;;6.15;0.50;;;;;;;12.59;72.05;99617.00;10282287;28;20039;-85
2023/12/24 21:30:04;;;;;;;7.65;0.50;;;;;;;12.48;72.28;99627.38;10286589;28;20047;-83
2023/12/24 21:35:06;;;;;;;2.55;0.40;;;;;;;12.43;72.35;99629.03;10283493;28;20449;-82
2023/12/24 21:40:09;;;;;;;3.85;0.60;;;;;;;12.49;72.11;99645.19;10284541;28;20122;-83
2023/12/24 21:45:10;;;;;;;2.90;0.65;;;;;;;12.52;72.21;99633.19;10290822;28;20067;-84
2023/12/24 21:50:12;;;;;;;4.72;0.40;;;;;;;12.58;72.25;99628.81;10293386;28;20137;-82
2023/12/24 21:55:14;;;;;;;4.03;0.40;;;;;;;12.66;71.69;99636.72;10289171;28;20050;-83
2023/12/24 22:00:15;;;;;;;2.92;0.43;;;;;;;12.68;71.74;99658.91;10291430;28;20047;-83
2023/12/24 22:05:17;;;;;;;5.70;0.35;;;;;;;12.75;71.52;99669.69;10269761;28;20047;-84
2023/12/24 22:10:19;;;;;;;4.97;0.70;;;;;;;12.76;71.26;99671.38;10288419;28;20134;-84
2023/12/24 22:15:20;;;;;;;2.63;0.38;;;;;;;12.77;71.32;99679.22;10285063;28;20129;-84
2023/12/24 22:20:22;;;;;;;4.95;0.50;;;;;;;12.76;71.15;99691.06;10267100;28;20056;-84
2023/12/24 22:25:23;;;;;;;2.25;0.30;;;;;;;12.75;71.26;99688.56;10286435;28;20568;-84
2023/12/24 22:30:25;;;;;;;1.02;0.40;;;;;;;12.80;71.07;99694.19;10286540;28;20477;-84
2023/12/24 22:35:27;;;;;;;3.58;0.50;;;;;;;12.79;71.60;99681.72;10286321;28;20062;-84
2023/12/24 22:40:29;;;;;;;5.18;1.50;;;;;;;12.79;70.99;99687.94;10284245;28;20070;-83
2023/12/24 22:45:30;;;;;;;3.42;0.70;;;;;;;12.81;71.12;99676.94;10286324;28;20137;-84
2023/12/24 22:50:35;;;;;;;3.53;0.38;;;;;;;12.83;70.71;99691.88;10274973;28;20046;-85
2023/12/24 22:55:37;;;;;;;1.38;0.30;;;;;;;12.83;70.60;99683.78;10285759;28;20482;-84
2023/12/24 23:00:39;;;;;;;2.15;0.55;;;;;;;12.82;70.69;99692.13;10270254;28;20074;-84
2023/12/24 23:05:40;;;;;;;5.40;0.60;;;;;;;12.80;70.56;99708.50;10286000;28;20043;-84
2023/12/24 23:10:42;;;;;;;1.52;0.22;;;;;;;12.81;70.58;99693.13;10284781;28;20114;-84
2023/12/24 23:15:43;;;;;;;1.65;0.30;;;;;;;12.75;70.69;99684.00;10282552;28;20066;-84
2023/12/24 23:20:45;;;;;;;2.08;0.88;;;;;;;12.80;70.30;99691.50;10288367;28;20125;-86
2023/12/24 23:25:47;;;;;;;2.25;0.30;;;;;;;12.74;70.74;99685.06;10278117;28;20050;-85